createdAt,value
2022-08-30T00:02:10.902Z,22.33
2022-08-30T00:04:37.920Z,22.33
2022-08-30T00:07:04.664Z,22.34
2022-08-30T00:09:32.433Z,22.24
2022-08-30T00:11:59.606Z,22.30
2022-08-30T00:14:27.588Z,22.28
2022-08-30T00:16:54.598Z,22.26
2022-08-30T00:19:21.558Z,22.23
2022-08-30T00:21:48.178Z,22.19
2022-08-30T00:24:14.876Z,22.10
2022-08-30T00:26:41.869Z,22.14
2022-08-30T00:29:08.759Z,22.09
2022-08-30T00:31:35.470Z,22.06
2022-08-30T00:34:02.803Z,22.04
2022-08-30T00:36:29.580Z,22.02
2022-08-30T00:38:56.311Z,22.00
2022-08-30T00:41:23.248Z,21.95
2022-08-30T00:43:50.153Z,21.96
2022-08-30T00:46:16.898Z,21.97
2022-08-30T00:48:48.917Z,21.88
2022-08-30T00:51:17.214Z,21.91
2022-08-30T00:53:54.852Z,21.82
2022-08-30T00:56:24.564Z,21.86
2022-08-30T00:58:55.812Z,21.82
2022-08-30T01:01:23.601Z,21.79
2022-08-30T01:03:50.813Z,21.73
2022-08-30T01:06:18.136Z,21.69
2022-08-30T01:08:46.406Z,21.68
2022-08-30T01:11:17.200Z,21.65
2022-08-30T01:13:45.700Z,21.61
2022-08-30T01:16:12.869Z,21.56
2022-08-30T01:18:40.438Z,21.53
2022-08-30T01:21:27.316Z,21.48
2022-08-30T01:23:58.136Z,21.41
2022-08-30T01:26:26.646Z,21.46
2022-08-30T01:28:56.855Z,21.42
2022-08-30T01:31:23.947Z,21.31
2022-08-30T01:33:51.139Z,21.34
2022-08-30T01:36:19.670Z,21.30
2022-08-30T01:38:50.316Z,21.28
2022-08-30T01:41:21.827Z,21.26
2022-08-30T01:43:50.534Z,21.22
2022-08-30T01:46:20.237Z,21.19
2022-08-30T01:48:54.016Z,21.14
2022-08-30T01:51:23.742Z,21.15
2022-08-30T01:53:50.722Z,21.11
2022-08-30T01:56:18.001Z,21.00
2022-08-30T01:58:46.142Z,20.99
2022-08-30T02:01:15.070Z,21.00
2022-08-30T02:03:44.229Z,21.00
2022-08-30T02:06:14.156Z,20.98
2022-08-30T02:08:41.405Z,20.91
2022-08-30T02:11:09.540Z,20.93
2022-08-30T02:13:40.208Z,20.89
2022-08-30T02:16:09.577Z,20.81
2022-08-30T02:18:39.275Z,20.78
2022-08-30T02:21:07.536Z,20.76
2022-08-30T02:23:35.026Z,20.79
2022-08-30T02:26:02.630Z,20.80
2022-08-30T02:28:29.479Z,20.80
2022-08-30T02:30:57.227Z,20.77
2022-08-30T02:33:24.386Z,20.65
2022-08-30T02:35:51.045Z,20.68
2022-08-30T02:38:18.915Z,20.67
2022-08-30T02:40:47.427Z,20.55
2022-08-30T02:43:14.283Z,20.58
2022-08-30T02:45:41.174Z,20.59
2022-08-30T02:48:08.397Z,20.54
2022-08-30T02:50:35.311Z,20.43
2022-08-30T02:53:01.927Z,20.39
2022-08-30T02:55:28.901Z,20.41
2022-08-30T02:57:55.580Z,20.39
2022-08-30T03:00:22.496Z,20.30
2022-08-30T03:02:49.593Z,20.35
2022-08-30T03:05:17.759Z,20.32
2022-08-30T03:07:46.375Z,20.32
2022-08-30T03:10:14.800Z,20.29
2022-08-30T03:12:42.083Z,20.27
2022-08-30T03:15:13.138Z,20.23
2022-08-30T03:17:41.148Z,20.21
2022-08-30T03:20:08.976Z,20.09
2022-08-30T03:22:35.740Z,20.09
2022-08-30T03:25:03.935Z,20.05
2022-08-30T03:27:30.902Z,20.04
2022-08-30T03:29:57.648Z,20.02
2022-08-30T03:32:24.711Z,19.92
2022-08-30T03:34:51.451Z,19.94
2022-08-30T03:37:18.524Z,19.95
2022-08-30T03:39:45.740Z,19.93
2022-08-30T03:42:12.738Z,19.88
2022-08-30T03:44:39.896Z,19.90
2022-08-30T03:47:08.530Z,19.93
2022-08-30T03:49:35.490Z,19.93
2022-08-30T03:52:02.456Z,19.91
2022-08-30T03:54:29.566Z,19.81
2022-08-30T03:56:56.525Z,19.85
2022-08-30T03:59:23.905Z,19.86
2022-08-30T04:01:51.510Z,19.80
2022-08-30T04:04:20.909Z,19.79
2022-08-30T04:06:48.972Z,19.69
2022-08-30T04:09:15.818Z,19.76
2022-08-30T04:11:42.985Z,19.76
2022-08-30T04:14:09.836Z,19.69
2022-08-30T04:16:36.651Z,19.73
2022-08-30T04:19:04.259Z,19.71
2022-08-30T04:21:31.388Z,19.66
2022-08-30T04:23:58.208Z,19.74
2022-08-30T04:26:29.390Z,19.76
2022-08-30T04:28:56.793Z,19.76
2022-08-30T04:31:24.072Z,19.78
2022-08-30T04:33:51.050Z,19.85
2022-08-30T04:36:17.792Z,19.87
2022-08-30T04:38:44.577Z,19.91
2022-08-30T04:41:16.306Z,19.87
2022-08-30T04:43:49.497Z,20.00
2022-08-30T04:46:18.276Z,20.07
2022-08-30T04:48:46.218Z,20.09
2022-08-30T04:51:16.417Z,20.14
2022-08-30T04:53:44.828Z,20.15
2022-08-30T04:56:17.733Z,20.25
2022-08-30T04:58:46.635Z,20.31
2022-08-30T05:01:19.892Z,20.33
2022-08-30T05:03:48.796Z,20.44
2022-08-30T05:06:16.507Z,20.59
2022-08-30T05:08:46.652Z,20.63
2022-08-30T05:11:15.698Z,20.68
2022-08-30T05:13:43.323Z,20.71
2022-08-30T05:16:10.303Z,20.65
2022-08-30T05:18:37.581Z,20.67
2022-08-30T05:21:04.170Z,20.75
2022-08-30T05:23:30.943Z,20.76
2022-08-30T05:25:58.089Z,20.83
2022-08-30T05:28:26.352Z,20.86
2022-08-30T05:30:53.323Z,20.88
2022-08-30T05:33:20.360Z,20.89
2022-08-30T05:35:47.069Z,20.92
2022-08-30T05:38:13.790Z,20.97
2022-08-30T05:40:42.549Z,20.93
2022-08-30T05:43:11.288Z,21.01
2022-08-30T05:45:38.458Z,21.02
2022-08-30T05:48:05.802Z,21.10
2022-08-30T05:50:34.086Z,21.04
2022-08-30T05:53:02.691Z,21.13
2022-08-30T05:55:29.880Z,21.15
2022-08-30T05:57:56.525Z,21.18
2022-08-30T06:00:23.647Z,21.20
2022-08-30T06:02:54.713Z,21.21
2022-08-30T06:05:21.510Z,21.25
2022-08-30T06:07:49.560Z,21.32
2022-08-30T06:10:16.866Z,21.45
2022-08-30T06:12:44.302Z,21.51
2022-08-30T06:15:11.654Z,21.56
2022-08-30T06:17:39.771Z,21.55
2022-08-30T06:20:07.397Z,21.61
2022-08-30T06:22:35.019Z,21.54
2022-08-30T06:25:02.132Z,21.64
2022-08-30T06:27:28.765Z,21.66
2022-08-30T06:29:55.434Z,21.66
2022-08-30T06:32:22.917Z,21.60
2022-08-30T06:34:49.671Z,21.72
2022-08-30T06:37:24.613Z,21.78
2022-08-30T06:39:58.562Z,21.75
2022-08-30T06:42:31.852Z,21.86
2022-08-30T06:45:01.086Z,21.85
2022-08-30T06:47:29.118Z,21.91
2022-08-30T06:49:55.984Z,21.93
2022-08-30T06:52:23.114Z,21.95
2022-08-30T06:54:50.411Z,21.88
2022-08-30T06:57:17.989Z,21.89
2022-08-30T06:59:44.929Z,21.90
2022-08-30T07:02:11.803Z,22.00
2022-08-30T07:04:38.813Z,22.05
2022-08-30T07:07:06.125Z,22.10
2022-08-30T07:12:06.627Z,22.19
2022-08-30T07:14:33.721Z,22.24
2022-08-30T07:17:00.394Z,22.22
2022-08-30T07:19:27.141Z,22.30
2022-08-30T07:21:54.103Z,22.29
2022-08-30T07:24:21.113Z,22.22
2022-08-30T07:26:51.975Z,22.34
2022-08-30T07:29:19.185Z,22.40
2022-08-30T07:31:46.206Z,22.38
2022-08-30T07:34:12.900Z,22.51
2022-08-30T07:36:40.180Z,22.55
2022-08-30T07:39:07.571Z,22.56
2022-08-30T07:41:38.591Z,22.61
2022-08-30T07:44:07.869Z,22.63
2022-08-30T07:46:35.281Z,22.57
2022-08-30T07:49:04.047Z,22.65
2022-08-30T07:51:32.535Z,22.64
2022-08-30T07:54:00.442Z,22.68
2022-08-30T07:56:27.625Z,22.70
2022-08-30T07:58:54.792Z,22.71
2022-08-30T08:01:22.440Z,22.75
2022-08-30T08:03:50.508Z,22.77
2022-08-30T08:06:19.726Z,22.89
2022-08-30T08:08:46.865Z,22.93
2022-08-30T08:11:24.673Z,22.95
2022-08-30T08:13:54.606Z,22.97
2022-08-30T08:16:24.220Z,22.96
2022-08-30T08:18:52.150Z,22.96
2022-08-30T08:21:18.987Z,22.91
2022-08-30T08:23:45.983Z,22.96
2022-08-30T08:26:12.703Z,23.08
2022-08-30T08:28:39.762Z,23.13
2022-08-30T08:31:22.057Z,23.17
2022-08-30T08:33:52.210Z,23.16
2022-08-30T08:36:19.282Z,23.08
2022-08-30T08:38:46.367Z,23.16
2022-08-30T08:41:33.131Z,23.16
2022-08-30T08:44:00.542Z,23.21
2022-08-30T08:46:52.139Z,23.32
2022-08-30T08:49:19.521Z,23.36
2022-08-30T08:52:05.281Z,23.36
2022-08-30T08:55:01.404Z,23.37
2022-08-30T08:57:33.601Z,23.34
2022-08-30T09:00:00.720Z,23.40
2022-08-30T09:02:34.398Z,23.43
2022-08-30T09:05:02.746Z,23.45
2022-08-30T09:07:37.135Z,23.42
2022-08-30T09:10:05.647Z,23.48
2022-08-30T09:12:32.766Z,23.53
2022-08-30T09:15:17.449Z,23.57
2022-08-30T09:18:03.864Z,23.61
2022-08-30T09:20:34.755Z,23.65
2022-08-30T09:23:13.929Z,23.59
2022-08-30T09:26:08.213Z,23.67
2022-08-30T09:28:49.337Z,23.69
2022-08-30T09:31:25.988Z,23.73
2022-08-30T09:34:01.743Z,23.71
2022-08-30T09:36:35.480Z,23.70
2022-08-30T09:39:06.083Z,23.81
2022-08-30T09:41:42.687Z,23.81
2022-08-30T09:44:28.194Z,23.89
2022-08-30T09:47:00.561Z,23.88
2022-08-30T09:49:34.646Z,23.85
2022-08-30T09:52:28.947Z,23.84
2022-08-30T09:55:20.942Z,23.95
2022-08-30T09:57:47.842Z,23.96
2022-08-30T10:00:18.660Z,23.96
2022-08-30T10:03:34.853Z,23.95
2022-08-30T10:06:21.407Z,23.96
2022-08-30T10:08:52.329Z,24.01
2022-08-30T10:11:19.376Z,24.03
2022-08-30T10:14:16.120Z,24.00
2022-08-30T10:17:27.221Z,24.05
2022-08-30T10:20:18.957Z,24.10
2022-08-30T10:22:57.630Z,24.12
2022-08-30T10:25:50.050Z,24.09
2022-08-30T10:28:17.033Z,24.09
2022-08-30T10:30:55.902Z,24.08
2022-08-30T10:33:39.151Z,24.08
2022-08-30T10:36:11.081Z,24.08
2022-08-30T10:38:41.635Z,24.05
2022-08-30T10:41:27.314Z,24.18
2022-08-30T10:44:00.389Z,24.18
2022-08-30T10:47:06.339Z,24.11
2022-08-30T10:49:41.501Z,24.18
2022-08-30T10:52:37.437Z,24.17
2022-08-30T10:55:08.470Z,24.12
2022-08-30T10:57:36.878Z,24.17
2022-08-30T11:00:10.932Z,24.20
2022-08-30T11:02:53.948Z,24.20
2022-08-30T11:05:42.526Z,24.35
2022-08-30T11:08:57.242Z,24.41
2022-08-30T11:11:34.168Z,24.46
2022-08-30T11:14:06.951Z,24.48
2022-08-30T11:16:41.196Z,24.50
2022-08-30T11:19:21.490Z,24.52
2022-08-30T11:21:50.952Z,24.49
2022-08-30T11:24:25.072Z,24.59
2022-08-30T11:26:58.321Z,24.61
2022-08-30T11:29:34.683Z,24.57
2022-08-30T11:32:13.547Z,24.57
2022-08-30T11:34:46.697Z,24.57
2022-08-30T11:37:33.851Z,24.54
2022-08-30T11:40:13.220Z,24.65
2022-08-30T11:42:44.775Z,24.69
2022-08-30T11:45:24.676Z,24.71
2022-08-30T11:48:04.423Z,24.76
2022-08-30T11:50:53.638Z,24.77
2022-08-30T11:53:36.758Z,24.77
2022-08-30T11:56:12.398Z,24.68
2022-08-30T11:59:06.061Z,24.66
2022-08-30T12:01:51.116Z,24.76
2022-08-30T12:04:19.770Z,24.76
2022-08-30T12:07:04.336Z,24.86
2022-08-30T12:09:33.121Z,24.89
2022-08-30T12:12:12.447Z,24.82
2022-08-30T12:14:49.109Z,24.87
2022-08-30T12:18:15.862Z,24.89
2022-08-30T12:20:47.249Z,24.92
2022-08-30T12:23:44.536Z,24.88
2022-08-30T12:26:33.057Z,24.95
2022-08-30T12:29:23.722Z,25.00
2022-08-30T12:32:03.331Z,25.01
2022-08-30T12:34:40.862Z,25.02
2022-08-30T12:37:28.051Z,25.03
2022-08-30T12:40:06.816Z,25.06
2022-08-30T12:42:36.901Z,25.03
2022-08-30T12:45:12.276Z,25.10
2022-08-30T12:47:45.627Z,25.04
2022-08-30T12:50:17.294Z,25.09
2022-08-30T12:52:48.018Z,25.06
2022-08-30T12:55:23.677Z,25.06
2022-08-30T12:58:09.775Z,25.13
2022-08-30T13:00:40.674Z,25.15
2022-08-30T13:03:24.206Z,25.12
2022-08-30T13:05:53.172Z,25.26
2022-08-30T13:08:25.287Z,25.26
2022-08-30T13:11:08.461Z,25.28
2022-08-30T13:13:44.476Z,25.23
2022-08-30T13:16:24.933Z,25.31
2022-08-30T13:19:22.822Z,25.33
2022-08-30T13:21:55.425Z,25.35
2022-08-30T13:24:25.492Z,25.34
2022-08-30T13:26:58.535Z,25.28
2022-08-30T13:29:28.741Z,25.35
2022-08-30T13:31:56.270Z,25.37
2022-08-30T13:34:23.573Z,25.42
2022-08-30T13:36:54.283Z,25.44
2022-08-30T13:39:21.809Z,25.39
2022-08-30T13:41:49.260Z,25.45
2022-08-30T13:44:16.488Z,25.44
2022-08-30T13:46:54.150Z,25.44
2022-08-30T13:52:21.513Z,25.43
2022-08-30T13:54:54.570Z,25.41
2022-08-30T14:00:19.414Z,25.44
2022-08-30T14:02:54.424Z,25.47
2022-08-30T14:05:47.706Z,25.51
2022-08-30T14:11:01.707Z,25.45
2022-08-30T14:13:30.034Z,25.44
2022-08-30T14:18:46.706Z,25.49
2022-08-30T14:21:13.891Z,25.49
2022-08-30T14:23:40.655Z,25.47
2022-08-30T14:26:17.222Z,25.45
2022-08-30T14:28:44.932Z,25.44
2022-08-30T14:31:13.016Z,25.41
2022-08-30T14:33:40.139Z,25.43
2022-08-30T14:36:12.433Z,25.44
2022-08-30T14:38:42.725Z,25.41
2022-08-30T14:41:10.832Z,25.39
2022-08-30T14:43:39.656Z,25.32
2022-08-30T14:46:08.039Z,25.37
2022-08-30T14:48:36.294Z,25.37
2022-08-30T14:51:12.503Z,25.29
2022-08-30T14:53:39.649Z,25.37
2022-08-30T14:56:13.609Z,25.34
2022-08-30T14:58:40.584Z,25.32
2022-08-30T15:01:09.806Z,25.30
2022-08-30T15:03:38.109Z,25.26
2022-08-30T15:06:06.444Z,25.29
2022-08-30T15:08:35.338Z,25.26
2022-08-30T15:11:10.724Z,25.23
2022-08-30T15:13:38.243Z,25.25
2022-08-30T15:16:13.931Z,25.19
2022-08-30T15:18:41.674Z,25.25
2022-08-30T15:21:09.883Z,25.24
2022-08-30T15:23:37.496Z,25.22
2022-08-30T15:26:07.163Z,25.20
2022-08-30T15:28:35.071Z,25.13
2022-08-30T15:31:06.256Z,25.19
2022-08-30T15:33:37.106Z,25.19
2022-08-30T15:36:04.976Z,25.19
2022-08-30T15:38:32.469Z,25.16
2022-08-30T15:41:03.994Z,25.17
2022-08-30T15:43:31.328Z,25.14
2022-08-30T15:46:30.096Z,25.11
2022-08-30T15:49:11.103Z,25.09
2022-08-30T15:51:41.061Z,25.08
2022-08-30T15:54:16.603Z,24.97
2022-08-30T15:56:45.501Z,24.99
2022-08-30T15:59:15.393Z,24.90
2022-08-30T16:01:43.723Z,24.93
2022-08-30T16:04:11.380Z,24.89
2022-08-30T16:06:39.116Z,24.86
2022-08-30T16:09:07.593Z,24.83
2022-08-30T16:11:34.999Z,24.80
2022-08-30T16:14:02.802Z,24.74
2022-08-30T16:16:31.186Z,24.74
2022-08-30T16:18:58.965Z,24.69
2022-08-30T16:21:31.533Z,24.59
2022-08-30T16:24:01.593Z,24.63
2022-08-30T16:26:30.227Z,24.59
2022-08-30T16:28:57.272Z,24.54
2022-08-30T16:31:26.890Z,24.48
2022-08-30T16:33:55.463Z,24.45
2022-08-30T16:36:30.016Z,24.39
2022-08-30T16:38:58.304Z,24.36
2022-08-30T16:41:26.996Z,24.31
2022-08-30T16:43:54.281Z,24.27
2022-08-30T16:46:27.293Z,24.23
2022-08-30T16:48:57.956Z,24.20
2022-08-30T16:51:27.439Z,24.08
2022-08-30T16:54:00.079Z,24.09
2022-08-30T16:56:29.719Z,24.06
2022-08-30T16:59:01.682Z,24.02
2022-08-30T17:01:35.337Z,23.98
2022-08-30T17:04:03.602Z,23.92
2022-08-30T17:06:30.702Z,23.80
2022-08-30T17:08:58.946Z,23.78
2022-08-30T17:11:26.182Z,23.77
2022-08-30T17:13:53.613Z,23.72
2022-08-30T17:16:22.710Z,23.67
2022-08-30T17:19:00.817Z,23.64
2022-08-30T17:21:29.613Z,23.61
2022-08-30T17:24:01.618Z,23.57
2022-08-30T17:26:31.174Z,23.53
2022-08-30T17:28:59.104Z,23.49
2022-08-30T17:31:29.071Z,23.36
2022-08-30T17:34:01.164Z,23.38
2022-08-30T17:36:36.514Z,23.32
2022-08-30T17:39:11.293Z,23.26
2022-08-30T17:41:45.465Z,23.17
2022-08-30T17:44:30.886Z,23.20
2022-08-30T17:46:59.887Z,23.15
2022-08-30T17:49:27.748Z,23.11
2022-08-30T17:51:56.945Z,23.01
2022-08-30T17:54:26.196Z,23.06
2022-08-30T17:56:54.310Z,22.95
2022-08-30T17:59:25.220Z,22.99
2022-08-30T18:01:54.907Z,22.95
2022-08-30T18:04:24.753Z,22.91
2022-08-30T18:06:52.763Z,22.90
2022-08-30T18:09:19.544Z,22.86
2022-08-30T18:11:48.449Z,22.82
2022-08-30T18:14:16.352Z,22.78
2022-08-30T18:16:53.152Z,22.79
2022-08-30T18:19:27.064Z,22.74
2022-08-30T18:21:55.331Z,22.73
2022-08-30T18:24:23.560Z,22.69
2022-08-30T18:26:50.546Z,22.64
2022-08-30T18:29:29.336Z,22.56
2022-08-30T18:32:02.932Z,22.61
2022-08-30T18:34:30.021Z,22.56
2022-08-30T18:36:57.111Z,22.51
2022-08-30T18:39:24.379Z,22.54
2022-08-30T18:41:54.227Z,22.53
2022-08-30T18:44:28.323Z,22.51
2022-08-30T18:46:57.847Z,22.48
2022-08-30T18:49:25.573Z,22.45
2022-08-30T18:51:52.596Z,22.46
2022-08-30T18:54:20.098Z,22.40
2022-08-30T18:56:46.791Z,22.39
2022-08-30T18:59:14.062Z,22.37
2022-08-30T19:01:42.602Z,22.35
2022-08-30T19:04:12.386Z,22.32
2022-08-30T19:06:57.048Z,22.30
2022-08-30T19:09:23.972Z,22.28
2022-08-30T19:11:53.606Z,22.25
2022-08-30T19:14:20.586Z,22.22
2022-08-30T19:16:48.037Z,22.22
2022-08-30T19:19:14.866Z,22.18
2022-08-30T19:21:42.186Z,22.15
2022-08-30T19:24:09.166Z,22.16
2022-08-30T19:26:37.364Z,22.06
2022-08-30T19:29:05.832Z,22.09
2022-08-30T19:31:33.536Z,22.08
2022-08-30T19:34:00.221Z,21.99
2022-08-30T19:36:29.267Z,22.02
2022-08-30T19:38:56.569Z,21.90
2022-08-30T19:41:23.627Z,21.93
2022-08-30T19:43:51.502Z,21.85
2022-08-30T19:46:18.362Z,21.87
2022-08-30T19:48:45.156Z,21.86
2022-08-30T19:51:14.380Z,21.79
2022-08-30T19:53:42.133Z,21.72
2022-08-30T19:56:08.883Z,21.63
2022-08-30T19:58:36.182Z,21.66
2022-08-30T20:01:12.197Z,21.69
2022-08-30T20:03:52.008Z,21.66
2022-08-30T20:06:19.715Z,21.63
2022-08-30T20:08:47.560Z,21.61
2022-08-30T20:11:17.661Z,21.57
2022-08-30T20:13:44.909Z,21.54
2022-08-30T20:16:13.247Z,21.50
2022-08-30T20:18:42.771Z,21.46
2022-08-30T20:21:13.372Z,21.42
2022-08-30T20:23:42.100Z,21.43
2022-08-30T20:26:10.634Z,21.41
2022-08-30T20:28:37.893Z,21.39
2022-08-30T20:31:06.554Z,21.30
2022-08-30T20:33:36.479Z,21.34
2022-08-30T20:36:05.750Z,21.34
2022-08-30T20:38:33.127Z,21.35
2022-08-30T20:41:01.155Z,21.35
2022-08-30T20:43:29.730Z,21.25
2022-08-30T20:45:57.133Z,21.28
2022-08-30T20:48:26.060Z,21.35
2022-08-30T20:50:52.715Z,21.34
2022-08-30T20:53:19.778Z,21.33
2022-08-30T20:55:47.576Z,21.30
2022-08-30T20:58:15.146Z,21.21
2022-08-30T21:00:45.653Z,21.18
2022-08-30T21:03:27.344Z,21.22
2022-08-30T21:05:56.793Z,21.18
2022-08-30T21:08:23.543Z,21.07
2022-08-30T21:10:50.232Z,21.05
2022-08-30T21:13:17.550Z,21.08
2022-08-30T21:15:47.110Z,20.93
2022-08-30T21:18:14.620Z,20.98
2022-08-30T21:20:42.030Z,20.96
2022-08-30T21:23:09.306Z,20.92
2022-08-30T21:25:40.324Z,20.87
2022-08-30T21:28:07.656Z,20.86
2022-08-30T21:30:35.754Z,20.83
2022-08-30T21:33:03.808Z,20.83
2022-08-30T21:35:49.816Z,20.79
2022-08-30T21:38:17.731Z,20.80
2022-08-30T21:40:44.871Z,20.75
2022-08-30T21:43:12.235Z,20.73
2022-08-30T21:45:40.215Z,20.71
2022-08-30T21:48:08.430Z,20.68
2022-08-30T21:50:37.707Z,20.58
2022-08-30T21:53:06.003Z,20.59
2022-08-30T21:55:33.197Z,20.57
2022-08-30T21:58:00.131Z,20.54
2022-08-30T22:00:26.883Z,20.51
2022-08-30T22:02:54.075Z,20.48
2022-08-30T22:05:20.963Z,20.40
2022-08-30T22:07:47.707Z,20.44
2022-08-30T22:10:15.054Z,20.41
2022-08-30T22:12:41.807Z,20.39
2022-08-30T22:15:09.357Z,20.29
2022-08-30T22:17:36.359Z,20.26
2022-08-30T22:20:05.477Z,20.26
2022-08-30T22:22:32.699Z,20.20
2022-08-30T22:24:59.848Z,20.12
2022-08-30T22:27:26.675Z,20.09
2022-08-30T22:29:53.430Z,20.05
2022-08-30T22:32:21.511Z,20.00
2022-08-30T22:34:49.760Z,19.96
2022-08-30T22:37:16.964Z,19.83
2022-08-30T22:39:43.922Z,19.85
2022-08-30T22:42:10.664Z,19.74
2022-08-30T22:44:37.306Z,19.75
2022-08-30T22:47:04.474Z,19.68
2022-08-30T22:49:31.221Z,19.63
2022-08-30T22:51:57.980Z,19.47
2022-08-30T22:54:24.909Z,19.51
2022-08-30T22:56:51.674Z,19.42
2022-08-30T22:59:18.411Z,19.32
2022-08-30T23:01:47.109Z,19.34
2022-08-30T23:04:13.975Z,19.29
2022-08-30T23:06:41.274Z,19.21
2022-08-30T23:09:16.919Z,19.22
2022-08-30T23:11:43.635Z,19.16
2022-08-30T23:14:10.429Z,19.11
2022-08-30T23:16:38.016Z,19.09
2022-08-30T23:19:05.399Z,18.99
2022-08-30T23:21:32.173Z,19.04
2022-08-30T23:24:18.004Z,19.00
2022-08-30T23:27:04.816Z,18.99
2022-08-30T23:29:52.015Z,18.87
2022-08-30T23:32:37.710Z,18.92
2022-08-30T23:35:29.607Z,18.89
2022-08-30T23:38:16.916Z,18.82
2022-08-30T23:41:03.164Z,18.88
2022-08-30T23:43:48.445Z,18.86
2022-08-30T23:46:34.504Z,18.74
2022-08-30T23:49:19.880Z,18.78
2022-08-30T23:52:05.982Z,18.74
2022-08-30T23:54:51.925Z,18.74
2022-08-30T23:57:45.071Z,18.73
